createdAt,value
2023-12-17T00:04:37.702Z,5.37
2023-12-17T00:09:39.842Z,5.31
2023-12-17T00:14:43.393Z,5.26
2023-12-17T00:19:46.980Z,5.20
2023-12-17T00:24:48.646Z,5.15
2023-12-17T00:29:50.830Z,5.13
2023-12-17T00:34:53.182Z,5.13
2023-12-17T00:39:55.630Z,5.14
2023-12-17T00:44:57.728Z,5.15
2023-12-17T00:49:59.737Z,5.17
2023-12-17T00:55:01.956Z,5.20
2023-12-17T01:00:05.575Z,5.19
2023-12-17T01:05:09.264Z,5.19
2023-12-17T01:10:11.328Z,5.17
2023-12-17T01:15:14.859Z,5.16
2023-12-17T01:20:16.814Z,5.13
2023-12-17T01:25:19.029Z,5.14
2023-12-17T01:30:22.150Z,5.15
2023-12-17T01:35:24.263Z,5.15
2023-12-17T01:40:27.390Z,5.17
2023-12-17T01:45:30.309Z,5.17
2023-12-17T01:50:37.940Z,5.17
2023-12-17T01:55:44.674Z,5.15
2023-12-17T02:00:49.749Z,5.14
2023-12-17T02:05:52.478Z,5.14
2023-12-17T02:10:55.312Z,5.16
2023-12-17T02:15:57.412Z,5.17
2023-12-17T02:21:02.226Z,5.17
2023-12-17T02:26:05.190Z,5.18
2023-12-17T02:36:23.772Z,5.20
2023-12-17T02:41:38.851Z,5.19
2023-12-17T02:46:43.268Z,5.13
2023-12-17T02:51:49.310Z,5.13
2023-12-17T02:56:56.854Z,5.13
2023-12-17T03:02:01.382Z,5.12
2023-12-17T03:07:06.835Z,5.10
2023-12-17T03:12:09.564Z,5.04
2023-12-17T03:17:20.439Z,5.02
2023-12-17T03:22:26.336Z,5.00
2023-12-17T03:27:28.683Z,4.98
2023-12-17T03:32:31.958Z,4.92
2023-12-17T03:37:44.507Z,4.89
2023-12-17T03:42:50.610Z,4.84
2023-12-17T03:47:54.985Z,4.81
2023-12-17T03:52:58.502Z,4.77
2023-12-17T03:58:01.562Z,4.72
2023-12-17T04:03:08.402Z,4.66
2023-12-17T04:08:14.381Z,4.61
2023-12-17T04:13:19.109Z,4.57
2023-12-17T04:18:21.608Z,4.54
2023-12-17T04:23:27.593Z,4.47
2023-12-17T04:28:29.434Z,4.43
2023-12-17T04:33:32.828Z,4.41
2023-12-17T04:43:50.545Z,4.38
2023-12-17T04:48:53.945Z,4.37
2023-12-17T04:53:58.557Z,4.34
2023-12-17T04:59:01.050Z,4.31
2023-12-17T05:04:04.427Z,4.26
2023-12-17T05:09:11.222Z,4.23
2023-12-17T05:14:13.960Z,4.20
2023-12-17T05:19:20.244Z,4.21
2023-12-17T05:24:22.042Z,4.22
2023-12-17T05:29:26.207Z,4.20
2023-12-17T05:34:30.164Z,4.19
2023-12-17T05:39:39.609Z,4.15
2023-12-17T05:44:41.210Z,4.13
2023-12-17T05:49:54.675Z,4.11
2023-12-17T05:54:56.345Z,4.08
2023-12-17T06:00:00.906Z,4.11
2023-12-17T06:05:09.233Z,4.10
2023-12-17T06:10:11.192Z,4.08
2023-12-17T06:15:17.147Z,4.09
2023-12-17T06:20:18.761Z,4.07
2023-12-17T06:25:20.330Z,4.05
2023-12-17T06:30:22.883Z,4.05
2023-12-17T06:35:29.409Z,4.04
2023-12-17T06:40:35.278Z,4.06
2023-12-17T06:45:36.850Z,4.07
2023-12-17T06:50:43.292Z,4.07
2023-12-17T06:55:44.927Z,4.10
2023-12-17T07:00:51.444Z,4.12
2023-12-17T07:05:56.116Z,4.15
2023-12-17T07:11:02.148Z,4.15
2023-12-17T07:16:22.939Z,4.15
2023-12-17T07:21:24.618Z,4.17
2023-12-17T07:26:27.487Z,4.16
2023-12-17T07:31:29.035Z,4.17
2023-12-17T07:36:32.705Z,4.19
2023-12-17T07:41:34.253Z,4.23
2023-12-17T07:46:35.773Z,4.24
2023-12-17T07:51:39.340Z,4.25
2023-12-17T07:56:40.891Z,4.27
2023-12-17T08:01:44.893Z,4.29
2023-12-17T08:06:48.554Z,4.30
2023-12-17T08:11:52.496Z,4.30
2023-12-17T08:16:54.131Z,4.31
2023-12-17T08:21:57.888Z,4.34
2023-12-17T08:27:00.525Z,4.37
2023-12-17T08:32:05.043Z,4.39
2023-12-17T08:37:06.694Z,4.42
2023-12-17T08:42:12.929Z,4.43
2023-12-17T08:47:14.783Z,4.46
2023-12-17T08:52:16.320Z,4.50
2023-12-17T08:57:18.656Z,4.55
2023-12-17T09:02:22.808Z,4.56
2023-12-17T09:07:26.539Z,4.60
2023-12-17T09:12:41.667Z,4.63
2023-12-17T09:17:48.787Z,4.63
2023-12-17T09:22:53.642Z,4.69
2023-12-17T09:27:58.697Z,4.73
2023-12-17T09:33:08.076Z,4.75
2023-12-17T09:38:12.634Z,4.80
2023-12-17T09:43:15.151Z,4.87
2023-12-17T09:48:17.813Z,4.89
2023-12-17T09:53:23.738Z,4.90
2023-12-17T09:58:29.400Z,4.93
2023-12-17T10:03:38.750Z,4.95
2023-12-17T10:08:44.622Z,4.99
2023-12-17T10:13:51.366Z,5.07
2023-12-17T10:18:54.340Z,5.13
2023-12-17T10:23:55.987Z,5.18
2023-12-17T10:28:57.670Z,5.24
2023-12-17T10:34:24.226Z,5.29
2023-12-17T10:39:26.729Z,5.35
2023-12-17T10:44:29.558Z,5.40
2023-12-17T10:49:35.731Z,5.45
2023-12-17T10:54:37.400Z,5.41
2023-12-17T10:59:47.157Z,5.40
2023-12-17T11:04:49.399Z,5.41
2023-12-17T11:09:53.553Z,5.47
2023-12-17T11:15:00.780Z,5.48
2023-12-17T11:20:04.291Z,5.51
2023-12-17T11:25:11.044Z,5.54
2023-12-17T11:30:30.794Z,5.56
2023-12-17T11:35:36.343Z,5.56
2023-12-17T11:40:38.930Z,5.59
2023-12-17T11:45:46.760Z,5.66
2023-12-17T11:51:00.451Z,5.70
2023-12-17T11:56:08.388Z,5.73
2023-12-17T12:01:12.736Z,5.74
2023-12-17T12:06:17.152Z,5.73
2023-12-17T12:11:21.023Z,5.74
2023-12-17T12:16:24.092Z,5.76
2023-12-17T12:21:26.910Z,5.78
2023-12-17T12:26:35.923Z,5.80
2023-12-17T12:31:41.101Z,5.80
2023-12-17T12:36:47.663Z,5.83
2023-12-17T12:41:53.195Z,5.85
2023-12-17T12:46:54.825Z,5.87
2023-12-17T12:51:58.968Z,5.92
2023-12-17T12:57:00.779Z,5.96
2023-12-17T13:02:02.424Z,6.00
2023-12-17T13:07:04.290Z,6.02
2023-12-17T13:12:12.458Z,6.01
2023-12-17T13:17:23.770Z,6.00
2023-12-17T13:22:27.633Z,6.03
2023-12-17T13:27:34.107Z,6.02
2023-12-17T13:32:40.157Z,6.02
2023-12-17T13:37:43.871Z,6.00
2023-12-17T13:42:51.518Z,5.97
2023-12-17T13:47:55.797Z,5.97
2023-12-17T13:53:01.205Z,5.93
2023-12-17T13:58:03.038Z,5.92
2023-12-17T14:03:04.739Z,5.92
2023-12-17T14:08:09.430Z,5.90
2023-12-17T14:13:13.479Z,5.86
2023-12-17T14:18:19.940Z,5.82
2023-12-17T14:23:22.603Z,5.82
2023-12-17T14:28:26.135Z,5.78
2023-12-17T14:33:35.192Z,5.76
2023-12-17T14:38:42.098Z,5.77
2023-12-17T14:43:50.030Z,5.74
2023-12-17T14:49:01.949Z,5.69
2023-12-17T14:54:03.967Z,5.69
2023-12-17T14:59:08.070Z,5.68
2023-12-17T15:04:09.629Z,5.66
2023-12-17T15:09:23.734Z,5.63
2023-12-17T15:14:29.312Z,5.57
2023-12-17T15:19:35.877Z,5.54
2023-12-17T15:24:46.249Z,5.49
2023-12-17T15:29:55.475Z,5.46
2023-12-17T15:34:57.038Z,5.42
2023-12-17T15:40:01.392Z,5.42
2023-12-17T15:45:06.545Z,5.38
2023-12-17T15:50:09.074Z,5.37
2023-12-17T15:55:10.676Z,5.35
2023-12-17T16:00:15.864Z,5.32
2023-12-17T16:05:17.432Z,5.27
2023-12-17T16:10:29.099Z,5.25
2023-12-17T16:15:32.860Z,5.24
2023-12-17T16:20:35.041Z,5.21
2023-12-17T16:25:36.640Z,5.20
2023-12-17T16:30:45.384Z,5.17
2023-12-17T16:35:58.862Z,5.12
2023-12-17T16:41:09.078Z,5.11
2023-12-17T16:46:12.994Z,5.08
2023-12-17T16:51:14.618Z,5.06
2023-12-17T16:56:17.187Z,5.05
2023-12-17T17:01:19.112Z,5.03
2023-12-17T17:06:23.255Z,5.02
2023-12-17T17:11:29.617Z,5.03
2023-12-17T17:16:32.396Z,5.03
2023-12-17T17:21:38.834Z,5.02
2023-12-17T17:26:40.432Z,4.99
2023-12-17T17:31:45.415Z,4.99
2023-12-17T17:36:49.291Z,5.00
2023-12-17T17:41:53.959Z,4.99
2023-12-17T17:46:55.643Z,5.01
2023-12-17T17:52:01.837Z,4.96
2023-12-17T17:57:07.374Z,4.94
2023-12-17T18:02:11.232Z,4.95
2023-12-17T18:07:15.006Z,4.95
2023-12-17T18:12:19.651Z,4.93
2023-12-17T18:17:21.624Z,4.91
2023-12-17T18:22:30.529Z,4.91
2023-12-17T18:27:35.250Z,4.89
2023-12-17T18:32:46.134Z,4.89
2023-12-17T18:37:50.391Z,4.89
2023-12-17T18:42:53.993Z,4.88
2023-12-17T18:48:01.724Z,4.82
2023-12-17T18:53:03.551Z,4.80
2023-12-17T18:58:09.439Z,4.79
2023-12-17T19:03:11.093Z,4.78
2023-12-17T19:08:12.714Z,4.78
2023-12-17T19:13:16.394Z,4.76
2023-12-17T19:18:20.575Z,4.74
2023-12-17T19:23:22.292Z,4.75
2023-12-17T19:28:29.447Z,4.73
2023-12-17T19:33:31.115Z,4.71
2023-12-17T19:38:32.741Z,4.72
2023-12-17T19:43:38.370Z,4.72
2023-12-17T19:48:44.791Z,4.68
2023-12-17T19:53:47.066Z,4.64
2023-12-17T19:58:48.737Z,4.61
2023-12-17T20:03:56.303Z,4.59
2023-12-17T20:08:58.073Z,4.56
2023-12-17T20:13:59.700Z,4.55
2023-12-17T20:19:08.674Z,4.52
2023-12-17T20:24:14.742Z,4.50
2023-12-17T20:29:16.389Z,4.51
2023-12-17T20:34:18.747Z,4.50
2023-12-17T20:39:20.425Z,4.49
2023-12-17T20:44:22.074Z,4.46
2023-12-17T20:49:38.568Z,4.45
2023-12-17T20:54:42.341Z,4.44
2023-12-17T21:00:01.443Z,4.43
2023-12-17T21:05:04.613Z,4.40
2023-12-17T21:10:07.129Z,4.37
2023-12-17T21:15:13.827Z,4.34
2023-12-17T21:20:17.667Z,4.34
2023-12-17T21:25:29.986Z,4.29
2023-12-17T21:30:37.156Z,4.28
2023-12-17T21:35:43.769Z,4.29
2023-12-17T21:40:45.395Z,4.30
2023-12-17T21:45:49.629Z,4.26
2023-12-17T21:50:54.780Z,4.26
2023-12-17T21:56:05.361Z,4.26
2023-12-17T22:01:08.510Z,4.24
2023-12-17T22:06:14.630Z,4.24
2023-12-17T22:11:19.058Z,4.24
2023-12-17T22:16:23.083Z,4.24
2023-12-17T22:21:27.343Z,4.23
2023-12-17T22:26:31.779Z,4.20
2023-12-17T22:31:35.856Z,4.20
2023-12-17T22:36:40.066Z,4.18
2023-12-17T22:41:47.036Z,4.16
2023-12-17T22:46:49.839Z,4.17
2023-12-17T22:51:55.670Z,4.16
2023-12-17T22:56:57.301Z,4.16
2023-12-17T23:01:59.097Z,4.18
2023-12-17T23:07:01.787Z,4.18
2023-12-17T23:12:05.999Z,4.15
2023-12-17T23:17:09.937Z,4.15
2023-12-17T23:22:14.089Z,4.11
2023-12-17T23:27:16.897Z,4.07
2023-12-17T23:32:28.029Z,4.07
2023-12-17T23:37:31.867Z,4.05
2023-12-17T23:42:37.777Z,4.05
2023-12-17T23:47:42.814Z,4.03
2023-12-17T23:52:45.819Z,4.01
2023-12-17T23:57:48.606Z,3.99
